KTVC/TVC METAR and TAF weather

Enter ICAO airport designator
Station Type Date Time Source
KTVC METAR 2020/07/15 01:53 UTC NOAA

KTVC 150153Z 00000KT 10SM FEW150 BKN220 24/17 A2998 RMK AO2 SLP149 LAST T02440167


Station Type Date Time Source
KTVC Decoded METAR 2020/07/15 01:53 UTC NOAA

CHERRY CAPITAL AIRPORT, MI, United States (KTVC) 44-44N 085-34W 190M
Jul 14, 2020 - 09:53 PM EDT / 2020.07.15 0153 UTC
Wind: Calm:0
Visibility: 10 mile(s):0
Sky conditions: mostly cloudy
Temperature: 75.9 F (24.4 C)
Dew Point: 62.1 F (16.7 C)
Relative Humidity: 62%
Pressure (altimeter): 29.98 in. Hg (1015 hPa)
ob: KTVC 150153Z 00000KT 10SM FEW150 BKN220 24/17 A2998 RMK AO2 SLP149 LAST T02440167
cycle: 2

Station Type Date Time Source
KTVC TAF 2020/07/14 18:24 UTC NOAA

TAF KTVC 141721Z 1418/1518 21006KT P6SM SCT060 BKN150
FM150600 18007KT P6SM VCSH OVC090
FM151000 20010KT P6SM VCSH OVC045
FM151200 20009KT P6SM OVC025

Example: see airport list